sensor_id;sensor_type;location;lat;lon;timestamp;P1;durP1;ratioP1;P2;durP2;ratioP2
50695;SDS011;36665;51.786;21.594;2022-11-27T00:06:04;30.10;;;12.70;;
50695;SDS011;36665;51.786;21.594;2022-11-27T00:14:27;43.10;;;16.80;;
50695;SDS011;36665;51.786;21.594;2022-11-27T00:22:48;27.90;;;10.70;;
50695;SDS011;36665;51.786;21.594;2022-11-27T00:31:14;30.80;;;12.20;;
50695;SDS011;36665;51.786;21.594;2022-11-27T00:39:47;24.30;;;9.40;;
50695;SDS011;36665;51.786;21.594;2022-11-27T00:48:09;24.20;;;10.00;;
50695;SDS011;36665;51.786;21.594;2022-11-27T00:56:32;25.70;;;11.10;;
50695;SDS011;36665;51.786;21.594;2022-11-27T01:04:56;32.80;;;11.30;;
50695;SDS011;36665;51.786;21.594;2022-11-27T01:13:18;22.50;;;10.10;;
50695;SDS011;36665;51.786;21.594;2022-11-27T01:21:40;26.10;;;11.60;;
50695;SDS011;36665;51.786;21.594;2022-11-27T01:30:03;27.20;;;10.70;;
50695;SDS011;36665;51.786;21.594;2022-11-27T01:38:25;28.70;;;11.70;;
50695;SDS011;36665;51.786;21.594;2022-11-27T01:46:47;19.30;;;8.50;;
50695;SDS011;36665;51.786;21.594;2022-11-27T02:03:53;31.40;;;12.00;;
50695;SDS011;36665;51.786;21.594;2022-11-27T02:21:25;19.80;;;8.50;;
50695;SDS011;36665;51.786;21.594;2022-11-27T02:29:52;26.70;;;10.70;;
50695;SDS011;36665;51.786;21.594;2022-11-27T02:38:22;30.00;;;12.60;;
50695;SDS011;36665;51.786;21.594;2022-11-27T02:46:48;32.30;;;13.10;;
50695;SDS011;36665;51.786;21.594;2022-11-27T02:55:11;42.60;;;18.00;;
50695;SDS011;36665;51.786;21.594;2022-11-27T03:03:38;39.80;;;17.50;;
50695;SDS011;36665;51.786;21.594;2022-11-27T03:12:06;28.30;;;10.90;;
50695;SDS011;36665;51.786;21.594;2022-11-27T03:20:32;22.50;;;10.90;;
50695;SDS011;36665;51.786;21.594;2022-11-27T03:29:00;22.40;;;10.60;;
50695;SDS011;36665;51.786;21.594;2022-11-27T03:37:25;22.10;;;9.30;;
50695;SDS011;36665;51.786;21.594;2022-11-27T03:45:51;28.00;;;11.10;;
50695;SDS011;36665;51.786;21.594;2022-11-27T04:03:27;23.70;;;10.40;;
50695;SDS011;36665;51.786;21.594;2022-11-27T04:11:50;28.20;;;11.20;;
50695;SDS011;36665;51.786;21.594;2022-11-27T04:20:12;26.90;;;11.80;;
50695;SDS011;36665;51.786;21.594;2022-11-27T04:28:34;40.50;;;11.90;;
50695;SDS011;36665;51.786;21.594;2022-11-27T04:36:56;40.70;;;16.00;;
50695;SDS011;36665;51.786;21.594;2022-11-27T04:45:19;52.90;;;18.30;;
50695;SDS011;36665;51.786;21.594;2022-11-27T04:53:42;47.90;;;18.70;;
50695;SDS011;36665;51.786;21.594;2022-11-27T05:02:05;54.90;;;21.50;;
50695;SDS011;36665;51.786;21.594;2022-11-27T05:10:27;58.60;;;22.60;;
50695;SDS011;36665;51.786;21.594;2022-11-27T05:18:50;61.10;;;21.60;;
50695;SDS011;36665;51.786;21.594;2022-11-27T05:27:12;65.00;;;24.20;;
50695;SDS011;36665;51.786;21.594;2022-11-27T05:35:35;63.50;;;24.50;;
50695;SDS011;36665;51.786;21.594;2022-11-27T05:43:58;55.60;;;20.80;;
50695;SDS011;36665;51.786;21.594;2022-11-27T05:52:20;72.40;;;25.20;;
50695;SDS011;36665;51.786;21.594;2022-11-27T06:00:42;59.10;;;22.40;;
50695;SDS011;36665;51.786;21.594;2022-11-27T06:09:03;57.20;;;22.20;;
50695;SDS011;36665;51.786;21.594;2022-11-27T06:17:33;64.00;;;25.70;;
50695;SDS011;36665;51.786;21.594;2022-11-27T06:25:54;70.60;;;26.50;;
50695;SDS011;36665;51.786;21.594;2022-11-27T06:34:16;63.20;;;23.60;;
50695;SDS011;36665;51.786;21.594;2022-11-27T06:42:37;77.70;;;24.70;;
50695;SDS011;36665;51.786;21.594;2022-11-27T06:50:59;69.90;;;25.70;;
50695;SDS011;36665;51.786;21.594;2022-11-27T06:59:22;62.30;;;25.70;;
50695;SDS011;36665;51.786;21.594;2022-11-27T07:07:44;67.80;;;25.90;;
50695;SDS011;36665;51.786;21.594;2022-11-27T07:16:07;65.60;;;26.40;;
50695;SDS011;36665;51.786;21.594;2022-11-27T07:24:30;68.70;;;28.40;;
50695;SDS011;36665;51.786;21.594;2022-11-27T07:32:52;76.40;;;27.80;;
50695;SDS011;36665;51.786;21.594;2022-11-27T07:41:14;67.20;;;23.70;;
50695;SDS011;36665;51.786;21.594;2022-11-27T07:49:36;77.00;;;25.60;;
50695;SDS011;36665;51.786;21.594;2022-11-27T07:57:57;75.80;;;26.80;;
50695;SDS011;36665;51.786;21.594;2022-11-27T08:06:20;74.10;;;28.30;;
50695;SDS011;36665;51.786;21.594;2022-11-27T08:14:43;50.00;;;21.00;;
50695;SDS011;36665;51.786;21.594;2022-11-27T08:23:05;78.60;;;28.50;;
50695;SDS011;36665;51.786;21.594;2022-11-27T08:31:28;81.40;;;31.20;;
50695;SDS011;36665;51.786;21.594;2022-11-27T08:39:50;79.00;;;30.50;;
50695;SDS011;36665;51.786;21.594;2022-11-27T08:48:12;77.80;;;26.70;;
50695;SDS011;36665;51.786;21.594;2022-11-27T08:56:33;79.30;;;29.30;;
50695;SDS011;36665;51.786;21.594;2022-11-27T09:04:56;102.80;;;33.30;;
50695;SDS011;36665;51.786;21.594;2022-11-27T09:13:17;93.40;;;33.20;;
50695;SDS011;36665;51.786;21.594;2022-11-27T09:21:39;75.50;;;27.90;;
50695;SDS011;36665;51.786;21.594;2022-11-27T09:30:01;93.30;;;31.70;;
50695;SDS011;36665;51.786;21.594;2022-11-27T09:38:22;97.10;;;33.50;;
50695;SDS011;36665;51.786;21.594;2022-11-27T09:46:44;97.70;;;34.10;;
50695;SDS011;36665;51.786;21.594;2022-11-27T09:55:13;94.30;;;28.60;;
50695;SDS011;36665;51.786;21.594;2022-11-27T10:03:59;108.40;;;34.70;;
50695;SDS011;36665;51.786;21.594;2022-11-27T10:12:32;136.00;;;38.60;;
50695;SDS011;36665;51.786;21.594;2022-11-27T10:29:49;124.10;;;39.90;;
50695;SDS011;36665;51.786;21.594;2022-11-27T10:38:15;188.50;;;59.20;;
50695;SDS011;36665;51.786;21.594;2022-11-27T10:46:42;389.40;;;109.70;;
50695;SDS011;36665;51.786;21.594;2022-11-27T10:55:08;248.10;;;90.50;;
50695;SDS011;36665;51.786;21.594;2022-11-27T11:03:37;136.10;;;44.00;;
50695;SDS011;36665;51.786;21.594;2022-11-27T11:12:12;127.30;;;39.30;;
50695;SDS011;36665;51.786;21.594;2022-11-27T11:29:06;120.20;;;40.00;;
50695;SDS011;36665;51.786;21.594;2022-11-27T11:37:44;118.80;;;37.80;;
50695;SDS011;36665;51.786;21.594;2022-11-27T11:46:17;130.20;;;39.20;;
50695;SDS011;36665;51.786;21.594;2022-11-27T12:38:08;125.60;;;46.50;;
50695;SDS011;36665;51.786;21.594;2022-11-27T12:46:39;104.10;;;37.90;;
50695;SDS011;36665;51.786;21.594;2022-11-27T12:55:14;102.30;;;33.70;;
50695;SDS011;36665;51.786;21.594;2022-11-27T13:03:50;97.20;;;38.80;;
50695;SDS011;36665;51.786;21.594;2022-11-27T13:12:21;131.70;;;54.40;;
50695;SDS011;36665;51.786;21.594;2022-11-27T13:20:48;184.30;;;59.80;;
50695;SDS011;36665;51.786;21.594;2022-11-27T13:29:26;189.30;;;67.20;;
50695;SDS011;36665;51.786;21.594;2022-11-27T13:37:54;152.00;;;54.80;;
50695;SDS011;36665;51.786;21.594;2022-11-27T13:46:20;114.10;;;38.60;;
50695;SDS011;36665;51.786;21.594;2022-11-27T13:54:52;231.70;;;76.40;;
50695;SDS011;36665;51.786;21.594;2022-11-27T14:03:20;111.60;;;42.20;;
50695;SDS011;36665;51.786;21.594;2022-11-27T14:11:44;138.20;;;44.30;;
50695;SDS011;36665;51.786;21.594;2022-11-27T14:28:30;114.90;;;35.90;;
50695;SDS011;36665;51.786;21.594;2022-11-27T14:36:56;136.60;;;46.60;;
50695;SDS011;36665;51.786;21.594;2022-11-27T14:45:20;467.40;;;169.10;;
50695;SDS011;36665;51.786;21.594;2022-11-27T14:53:47;374.20;;;134.60;;
50695;SDS011;36665;51.786;21.594;2022-11-27T15:10:39;412.20;;;139.00;;
50695;SDS011;36665;51.786;21.594;2022-11-27T15:19:02;183.50;;;63.70;;
50695;SDS011;36665;51.786;21.594;2022-11-27T15:27:25;217.70;;;72.60;;
50695;SDS011;36665;51.786;21.594;2022-11-27T15:35:47;385.60;;;137.60;;
50695;SDS011;36665;51.786;21.594;2022-11-27T15:44:14;255.50;;;96.20;;
50695;SDS011;36665;51.786;21.594;2022-11-27T15:52:36;108.30;;;37.30;;
50695;SDS011;36665;51.786;21.594;2022-11-27T16:00:57;137.40;;;47.00;;
50695;SDS011;36665;51.786;21.594;2022-11-27T16:09:19;243.50;;;85.20;;
50695;SDS011;36665;51.786;21.594;2022-11-27T16:17:40;159.10;;;52.50;;
50695;SDS011;36665;51.786;21.594;2022-11-27T16:26:02;145.00;;;52.20;;
50695;SDS011;36665;51.786;21.594;2022-11-27T16:34:24;142.90;;;52.30;;
50695;SDS011;36665;51.786;21.594;2022-11-27T16:42:46;112.60;;;40.20;;
50695;SDS011;36665;51.786;21.594;2022-11-27T16:51:15;112.60;;;39.60;;
50695;SDS011;36665;51.786;21.594;2022-11-27T16:59:39;134.00;;;51.30;;
50695;SDS011;36665;51.786;21.594;2022-11-27T17:08:01;115.00;;;38.90;;
50695;SDS011;36665;51.786;21.594;2022-11-27T17:16:24;117.10;;;44.70;;
50695;SDS011;36665;51.786;21.594;2022-11-27T17:24:46;117.60;;;40.80;;
50695;SDS011;36665;51.786;21.594;2022-11-27T17:33:09;365.00;;;118.50;;
50695;SDS011;36665;51.786;21.594;2022-11-27T17:41:31;284.60;;;101.50;;
50695;SDS011;36665;51.786;21.594;2022-11-27T17:49:52;215.00;;;77.80;;
50695;SDS011;36665;51.786;21.594;2022-11-27T17:58:14;135.50;;;46.50;;
50695;SDS011;36665;51.786;21.594;2022-11-27T18:06:36;181.80;;;73.90;;
50695;SDS011;36665;51.786;21.594;2022-11-27T18:14:58;119.20;;;45.00;;
50695;SDS011;36665;51.786;21.594;2022-11-27T18:23:22;109.10;;;45.50;;
50695;SDS011;36665;51.786;21.594;2022-11-27T18:31:44;187.40;;;79.60;;
50695;SDS011;36665;51.786;21.594;2022-11-27T18:40:07;165.50;;;62.90;;
50695;SDS011;36665;51.786;21.594;2022-11-27T18:48:32;104.30;;;43.90;;
50695;SDS011;36665;51.786;21.594;2022-11-27T18:56:54;137.90;;;51.60;;
50695;SDS011;36665;51.786;21.594;2022-11-27T19:05:16;129.70;;;51.90;;
50695;SDS011;36665;51.786;21.594;2022-11-27T19:13:38;115.40;;;46.10;;
50695;SDS011;36665;51.786;21.594;2022-11-27T19:22:01;197.00;;;74.60;;
50695;SDS011;36665;51.786;21.594;2022-11-27T19:30:23;92.50;;;36.60;;
50695;SDS011;36665;51.786;21.594;2022-11-27T19:38:44;87.00;;;37.50;;
50695;SDS011;36665;51.786;21.594;2022-11-27T19:47:06;81.70;;;32.30;;
50695;SDS011;36665;51.786;21.594;2022-11-27T19:55:30;80.60;;;32.50;;
50695;SDS011;36665;51.786;21.594;2022-11-27T20:03:51;101.70;;;37.30;;
50695;SDS011;36665;51.786;21.594;2022-11-27T20:12:13;152.50;;;53.80;;
50695;SDS011;36665;51.786;21.594;2022-11-27T20:20:35;121.00;;;45.00;;
50695;SDS011;36665;51.786;21.594;2022-11-27T20:28:57;182.80;;;65.70;;
50695;SDS011;36665;51.786;21.594;2022-11-27T20:37:19;137.60;;;47.80;;
50695;SDS011;36665;51.786;21.594;2022-11-27T20:45:40;278.20;;;93.40;;
50695;SDS011;36665;51.786;21.594;2022-11-27T20:54:03;95.80;;;38.40;;
50695;SDS011;36665;51.786;21.594;2022-11-27T21:02:25;87.30;;;30.40;;
50695;SDS011;36665;51.786;21.594;2022-11-27T21:10:47;92.90;;;38.30;;
50695;SDS011;36665;51.786;21.594;2022-11-27T21:19:12;96.40;;;35.50;;
50695;SDS011;36665;51.786;21.594;2022-11-27T21:27:42;100.00;;;35.10;;
50695;SDS011;36665;51.786;21.594;2022-11-27T21:36:04;112.90;;;46.20;;
50695;SDS011;36665;51.786;21.594;2022-11-27T21:44:26;96.10;;;36.90;;
50695;SDS011;36665;51.786;21.594;2022-11-27T21:52:48;92.40;;;39.00;;
50695;SDS011;36665;51.786;21.594;2022-11-27T22:01:10;99.20;;;36.80;;
50695;SDS011;36665;51.786;21.594;2022-11-27T22:09:34;73.50;;;31.90;;
50695;SDS011;36665;51.786;21.594;2022-11-27T22:17:56;77.60;;;32.70;;
50695;SDS011;36665;51.786;21.594;2022-11-27T22:26:21;98.90;;;39.80;;
50695;SDS011;36665;51.786;21.594;2022-11-27T22:34:43;89.10;;;34.90;;
50695;SDS011;36665;51.786;21.594;2022-11-27T22:43:06;89.60;;;31.60;;
50695;SDS011;36665;51.786;21.594;2022-11-27T22:51:28;77.10;;;30.40;;
50695;SDS011;36665;51.786;21.594;2022-11-27T22:59:51;86.10;;;34.40;;
50695;SDS011;36665;51.786;21.594;2022-11-27T23:08:13;77.20;;;30.40;;
50695;SDS011;36665;51.786;21.594;2022-11-27T23:16:34;76.40;;;30.80;;
50695;SDS011;36665;51.786;21.594;2022-11-27T23:24:57;82.40;;;35.60;;
50695;SDS011;36665;51.786;21.594;2022-11-27T23:33:20;81.60;;;32.40;;
50695;SDS011;36665;51.786;21.594;2022-11-27T23:41:42;69.20;;;33.00;;
50695;SDS011;36665;51.786;21.594;2022-11-27T23:50:04;72.10;;;28.40;;
50695;SDS011;36665;51.786;21.594;2022-11-27T23:58:27;70.40;;;28.20;;
